sensor_id;sensor_type;location;lat;lon;timestamp;temperature;humidity
11836;DHT22;5977;51.972;7.640;2022-12-20T00:01:22;15.70;80.70
11836;DHT22;5977;51.972;7.640;2022-12-20T00:03:51;15.70;80.70
11836;DHT22;5977;51.972;7.640;2022-12-20T00:06:21;15.80;80.70
11836;DHT22;5977;51.972;7.640;2022-12-20T00:08:54;15.70;80.60
11836;DHT22;5977;51.972;7.640;2022-12-20T00:11:23;15.70;80.40
11836;DHT22;5977;51.972;7.640;2022-12-20T00:13:51;15.70;80.60
11836;DHT22;5977;51.972;7.640;2022-12-20T00:16:21;15.70;80.60
11836;DHT22;5977;51.972;7.640;2022-12-20T00:18:51;15.70;80.50
11836;DHT22;5977;51.972;7.640;2022-12-20T00:21:19;15.70;80.60
11836;DHT22;5977;51.972;7.640;2022-12-20T00:23:47;15.70;80.50
11836;DHT22;5977;51.972;7.640;2022-12-20T00:26:18;15.80;80.50
11836;DHT22;5977;51.972;7.640;2022-12-20T00:28:46;15.70;80.20
11836;DHT22;5977;51.972;7.640;2022-12-20T00:31:17;15.80;80.20
11836;DHT22;5977;51.972;7.640;2022-12-20T00:33:47;15.70;80.80
11836;DHT22;5977;51.972;7.640;2022-12-20T00:36:16;15.70;80.10
11836;DHT22;5977;51.972;7.640;2022-12-20T00:38:45;15.80;80.10
11836;DHT22;5977;51.972;7.640;2022-12-20T00:41:18;15.70;80.20
11836;DHT22;5977;51.972;7.640;2022-12-20T00:43:47;15.80;80.00
11836;DHT22;5977;51.972;7.640;2022-12-20T00:46:16;15.70;80.00
11836;DHT22;5977;51.972;7.640;2022-12-20T00:48:45;15.70;80.00
11836;DHT22;5977;51.972;7.640;2022-12-20T00:51:15;15.70;80.00
11836;DHT22;5977;51.972;7.640;2022-12-20T00:53:43;15.70;79.80
11836;DHT22;5977;51.972;7.640;2022-12-20T00:56:12;15.70;79.90
11836;DHT22;5977;51.972;7.640;2022-12-20T00:58:42;15.70;79.90
11836;DHT22;5977;51.972;7.640;2022-12-20T01:01:17;15.70;79.70
11836;DHT22;5977;51.972;7.640;2022-12-20T01:03:47;15.70;79.60
11836;DHT22;5977;51.972;7.640;2022-12-20T01:06:15;15.70;79.90
11836;DHT22;5977;51.972;7.640;2022-12-20T01:08:43;15.70;79.90
11836;DHT22;5977;51.972;7.640;2022-12-20T01:11:12;15.80;79.90
11836;DHT22;5977;51.972;7.640;2022-12-20T01:13:44;15.70;79.80
11836;DHT22;5977;51.972;7.640;2022-12-20T01:16:15;15.80;79.80
11836;DHT22;5977;51.972;7.640;2022-12-20T01:18:44;15.80;79.70
11836;DHT22;5977;51.972;7.640;2022-12-20T01:21:14;15.70;79.60
11836;DHT22;5977;51.972;7.640;2022-12-20T01:23:43;15.70;79.60
11836;DHT22;5977;51.972;7.640;2022-12-20T01:26:12;15.70;79.80
11836;DHT22;5977;51.972;7.640;2022-12-20T01:28:43;15.70;79.70
11836;DHT22;5977;51.972;7.640;2022-12-20T01:31:14;15.80;79.70
11836;DHT22;5977;51.972;7.640;2022-12-20T01:33:43;15.70;79.70
11836;DHT22;5977;51.972;7.640;2022-12-20T01:36:14;15.70;79.70
11836;DHT22;5977;51.972;7.640;2022-12-20T01:38:43;15.80;79.70
11836;DHT22;5977;51.972;7.640;2022-12-20T01:41:14;15.80;79.80
11836;DHT22;5977;51.972;7.640;2022-12-20T01:43:50;15.70;79.60
11836;DHT22;5977;51.972;7.640;2022-12-20T01:46:19;15.70;79.40
11836;DHT22;5977;51.972;7.640;2022-12-20T01:48:51;15.70;79.70
11836;DHT22;5977;51.972;7.640;2022-12-20T01:51:21;15.80;79.60
11836;DHT22;5977;51.972;7.640;2022-12-20T01:53:54;15.70;79.60
11836;DHT22;5977;51.972;7.640;2022-12-20T01:56:23;15.70;79.50
11836;DHT22;5977;51.972;7.640;2022-12-20T01:58:53;15.70;79.60
11836;DHT22;5977;51.972;7.640;2022-12-20T02:01:23;15.70;79.50
11836;DHT22;5977;51.972;7.640;2022-12-20T02:03:54;15.70;79.50
11836;DHT22;5977;51.972;7.640;2022-12-20T02:06:23;15.80;79.60
11836;DHT22;5977;51.972;7.640;2022-12-20T02:08:54;15.70;79.50
11836;DHT22;5977;51.972;7.640;2022-12-20T02:11:57;15.70;79.40
11836;DHT22;5977;51.972;7.640;2022-12-20T02:14:56;15.70;79.20
11836;DHT22;5977;51.972;7.640;2022-12-20T02:17:35;15.70;79.20
11836;DHT22;5977;51.972;7.640;2022-12-20T02:20:37;15.80;79.30
11836;DHT22;5977;51.972;7.640;2022-12-20T02:23:27;15.80;79.20
11836;DHT22;5977;51.972;7.640;2022-12-20T02:26:08;15.80;79.20
11836;DHT22;5977;51.972;7.640;2022-12-20T02:28:54;15.80;79.30
11836;DHT22;5977;51.972;7.640;2022-12-20T02:31:33;15.80;79.30
11836;DHT22;5977;51.972;7.640;2022-12-20T02:34:06;15.80;79.40
11836;DHT22;5977;51.972;7.640;2022-12-20T02:36:36;15.80;79.50
11836;DHT22;5977;51.972;7.640;2022-12-20T02:39:05;15.80;79.60
11836;DHT22;5977;51.972;7.640;2022-12-20T02:41:36;15.80;79.40
11836;DHT22;5977;51.972;7.640;2022-12-20T02:44:09;15.80;79.20
11836;DHT22;5977;51.972;7.640;2022-12-20T02:47:00;15.80;79.20
11836;DHT22;5977;51.972;7.640;2022-12-20T02:49:31;15.90;79.30
11836;DHT22;5977;51.972;7.640;2022-12-20T02:52:01;15.80;79.30
11836;DHT22;5977;51.972;7.640;2022-12-20T02:54:30;15.80;79.30
11836;DHT22;5977;51.972;7.640;2022-12-20T02:57:02;15.80;79.40
11836;DHT22;5977;51.972;7.640;2022-12-20T02:59:38;15.80;79.30
11836;DHT22;5977;51.972;7.640;2022-12-20T03:02:08;15.80;79.20
11836;DHT22;5977;51.972;7.640;2022-12-20T03:04:38;15.80;79.30
11836;DHT22;5977;51.972;7.640;2022-12-20T03:07:09;15.80;79.30
11836;DHT22;5977;51.972;7.640;2022-12-20T03:09:40;15.80;79.30
11836;DHT22;5977;51.972;7.640;2022-12-20T03:12:09;15.80;79.20
11836;DHT22;5977;51.972;7.640;2022-12-20T03:14:38;15.80;79.20
11836;DHT22;5977;51.972;7.640;2022-12-20T03:17:10;15.80;79.20
11836;DHT22;5977;51.972;7.640;2022-12-20T03:19:38;15.80;79.10
11836;DHT22;5977;51.972;7.640;2022-12-20T03:22:06;15.80;79.20
11836;DHT22;5977;51.972;7.640;2022-12-20T03:24:34;15.80;79.20
11836;DHT22;5977;51.972;7.640;2022-12-20T03:27:06;15.80;79.10
11836;DHT22;5977;51.972;7.640;2022-12-20T03:29:34;15.80;79.10
11836;DHT22;5977;51.972;7.640;2022-12-20T03:32:02;15.80;79.30
11836;DHT22;5977;51.972;7.640;2022-12-20T03:34:32;15.80;79.10
11836;DHT22;5977;51.972;7.640;2022-12-20T03:37:01;15.80;78.90
11836;DHT22;5977;51.972;7.640;2022-12-20T03:39:29;15.80;79.00
11836;DHT22;5977;51.972;7.640;2022-12-20T03:41:57;15.80;79.70
11836;DHT22;5977;51.972;7.640;2022-12-20T03:44:25;15.80;79.00
11836;DHT22;5977;51.972;7.640;2022-12-20T03:46:53;15.90;79.00
11836;DHT22;5977;51.972;7.640;2022-12-20T03:49:21;15.80;78.90
11836;DHT22;5977;51.972;7.640;2022-12-20T03:51:52;15.80;78.90
11836;DHT22;5977;51.972;7.640;2022-12-20T03:54:21;15.80;79.10
11836;DHT22;5977;51.972;7.640;2022-12-20T03:57:10;15.80;78.90
11836;DHT22;5977;51.972;7.640;2022-12-20T03:59:39;15.80;78.90
11836;DHT22;5977;51.972;7.640;2022-12-20T04:02:09;15.90;78.90
11836;DHT22;5977;51.972;7.640;2022-12-20T04:04:38;15.80;78.90
11836;DHT22;5977;51.972;7.640;2022-12-20T04:07:07;15.90;79.00
11836;DHT22;5977;51.972;7.640;2022-12-20T04:09:38;15.90;79.00
11836;DHT22;5977;51.972;7.640;2022-12-20T04:12:11;15.80;79.10
11836;DHT22;5977;51.972;7.640;2022-12-20T04:14:39;15.90;79.10
11836;DHT22;5977;51.972;7.640;2022-12-20T04:17:07;15.90;79.10
11836;DHT22;5977;51.972;7.640;2022-12-20T04:19:36;15.80;79.10
11836;DHT22;5977;51.972;7.640;2022-12-20T04:22:05;15.90;79.20
11836;DHT22;5977;51.972;7.640;2022-12-20T04:24:49;15.90;79.30
11836;DHT22;5977;51.972;7.640;2022-12-20T04:27:27;15.90;79.10
11836;DHT22;5977;51.972;7.640;2022-12-20T04:29:56;15.80;79.00
11836;DHT22;5977;51.972;7.640;2022-12-20T04:32:23;15.80;79.10
11836;DHT22;5977;51.972;7.640;2022-12-20T04:34:51;15.90;79.10
11836;DHT22;5977;51.972;7.640;2022-12-20T04:37:20;15.90;79.10
11836;DHT22;5977;51.972;7.640;2022-12-20T04:39:54;15.90;79.10
11836;DHT22;5977;51.972;7.640;2022-12-20T04:42:34;15.90;79.00
11836;DHT22;5977;51.972;7.640;2022-12-20T04:45:02;15.90;79.00
11836;DHT22;5977;51.972;7.640;2022-12-20T04:47:31;15.90;79.00
11836;DHT22;5977;51.972;7.640;2022-12-20T04:49:58;15.90;79.10
11836;DHT22;5977;51.972;7.640;2022-12-20T04:52:27;15.90;79.20
11836;DHT22;5977;51.972;7.640;2022-12-20T04:55:16;16.00;79.20
11836;DHT22;5977;51.972;7.640;2022-12-20T04:57:44;15.90;79.30
11836;DHT22;5977;51.972;7.640;2022-12-20T05:00:12;16.00;79.70
11836;DHT22;5977;51.972;7.640;2022-12-20T05:02:43;16.00;79.90
11836;DHT22;5977;51.972;7.640;2022-12-20T05:05:15;16.00;80.00
11836;DHT22;5977;51.972;7.640;2022-12-20T05:07:48;16.00;80.10
11836;DHT22;5977;51.972;7.640;2022-12-20T05:10:18;16.00;80.20
11836;DHT22;5977;51.972;7.640;2022-12-20T05:12:47;16.00;80.10
11836;DHT22;5977;51.972;7.640;2022-12-20T05:15:26;16.00;80.20
11836;DHT22;5977;51.972;7.640;2022-12-20T05:17:54;16.00;80.30
11836;DHT22;5977;51.972;7.640;2022-12-20T05:20:30;16.00;80.30
11836;DHT22;5977;51.972;7.640;2022-12-20T05:22:59;16.00;80.20
11836;DHT22;5977;51.972;7.640;2022-12-20T05:25:52;16.00;80.40
11836;DHT22;5977;51.972;7.640;2022-12-20T05:28:38;16.00;80.20
11836;DHT22;5977;51.972;7.640;2022-12-20T05:31:06;16.00;80.40
11836;DHT22;5977;51.972;7.640;2022-12-20T05:33:35;16.00;80.40
11836;DHT22;5977;51.972;7.640;2022-12-20T05:36:04;16.00;80.40
11836;DHT22;5977;51.972;7.640;2022-12-20T05:38:32;16.10;80.40
11836;DHT22;5977;51.972;7.640;2022-12-20T05:41:03;16.00;80.30
11836;DHT22;5977;51.972;7.640;2022-12-20T05:43:32;16.00;80.10
11836;DHT22;5977;51.972;7.640;2022-12-20T05:46:00;16.10;80.30
11836;DHT22;5977;51.972;7.640;2022-12-20T05:48:35;16.00;80.40
11836;DHT22;5977;51.972;7.640;2022-12-20T05:51:04;16.00;80.30
11836;DHT22;5977;51.972;7.640;2022-12-20T05:53:38;16.00;80.40
11836;DHT22;5977;51.972;7.640;2022-12-20T05:56:08;16.10;80.40
11836;DHT22;5977;51.972;7.640;2022-12-20T05:58:37;16.10;80.30
11836;DHT22;5977;51.972;7.640;2022-12-20T06:01:06;16.10;80.40
11836;DHT22;5977;51.972;7.640;2022-12-20T06:03:37;16.00;80.20
11836;DHT22;5977;51.972;7.640;2022-12-20T06:06:10;16.00;80.60
11836;DHT22;5977;51.972;7.640;2022-12-20T06:08:43;16.10;80.40
11836;DHT22;5977;51.972;7.640;2022-12-20T06:11:32;16.10;80.40
11836;DHT22;5977;51.972;7.640;2022-12-20T06:14:04;16.10;80.30
11836;DHT22;5977;51.972;7.640;2022-12-20T06:16:34;16.00;80.20
11836;DHT22;5977;51.972;7.640;2022-12-20T06:19:04;16.00;80.20
11836;DHT22;5977;51.972;7.640;2022-12-20T06:21:33;16.00;80.20
11836;DHT22;5977;51.972;7.640;2022-12-20T06:24:01;16.00;80.20
11836;DHT22;5977;51.972;7.640;2022-12-20T06:26:31;16.00;80.20
11836;DHT22;5977;51.972;7.640;2022-12-20T06:29:04;16.00;80.20
11836;DHT22;5977;51.972;7.640;2022-12-20T06:31:37;16.10;80.30
11836;DHT22;5977;51.972;7.640;2022-12-20T06:34:05;16.00;80.20
11836;DHT22;5977;51.972;7.640;2022-12-20T06:36:37;16.00;80.90
11836;DHT22;5977;51.972;7.640;2022-12-20T06:39:07;16.10;80.30
11836;DHT22;5977;51.972;7.640;2022-12-20T06:41:45;16.00;80.20
11836;DHT22;5977;51.972;7.640;2022-12-20T06:44:13;16.10;80.10
11836;DHT22;5977;51.972;7.640;2022-12-20T06:46:41;16.10;80.20
11836;DHT22;5977;51.972;7.640;2022-12-20T06:49:09;16.10;80.10
11836;DHT22;5977;51.972;7.640;2022-12-20T06:51:37;16.00;80.10
11836;DHT22;5977;51.972;7.640;2022-12-20T06:54:05;16.00;80.10
11836;DHT22;5977;51.972;7.640;2022-12-20T06:56:34;16.10;80.10
11836;DHT22;5977;51.972;7.640;2022-12-20T06:59:10;16.00;80.10
11836;DHT22;5977;51.972;7.640;2022-12-20T07:01:38;16.10;80.00
11836;DHT22;5977;51.972;7.640;2022-12-20T07:04:06;16.10;80.10
11836;DHT22;5977;51.972;7.640;2022-12-20T07:06:34;16.10;80.10
11836;DHT22;5977;51.972;7.640;2022-12-20T07:09:02;16.20;80.10
11836;DHT22;5977;51.972;7.640;2022-12-20T07:11:30;16.10;79.90
11836;DHT22;5977;51.972;7.640;2022-12-20T07:13:58;16.10;80.00
11836;DHT22;5977;51.972;7.640;2022-12-20T07:16:27;16.10;80.00
11836;DHT22;5977;51.972;7.640;2022-12-20T07:18:58;16.10;80.00
11836;DHT22;5977;51.972;7.640;2022-12-20T07:21:26;16.00;80.00
11836;DHT22;5977;51.972;7.640;2022-12-20T07:23:54;16.10;80.10
11836;DHT22;5977;51.972;7.640;2022-12-20T07:26:22;16.10;80.10
11836;DHT22;5977;51.972;7.640;2022-12-20T07:28:50;16.00;80.10
11836;DHT22;5977;51.972;7.640;2022-12-20T07:31:18;16.10;80.30
11836;DHT22;5977;51.972;7.640;2022-12-20T07:33:47;16.10;80.30
11836;DHT22;5977;51.972;7.640;2022-12-20T07:36:15;16.10;80.30
11836;DHT22;5977;51.972;7.640;2022-12-20T07:38:43;16.10;80.40
11836;DHT22;5977;51.972;7.640;2022-12-20T07:41:13;16.10;80.40
11836;DHT22;5977;51.972;7.640;2022-12-20T07:43:41;16.10;80.40
11836;DHT22;5977;51.972;7.640;2022-12-20T07:46:12;16.10;80.60
11836;DHT22;5977;51.972;7.640;2022-12-20T07:48:42;16.10;80.40
11836;DHT22;5977;51.972;7.640;2022-12-20T07:51:15;16.10;80.40
11836;DHT22;5977;51.972;7.640;2022-12-20T07:53:46;16.10;80.30
11836;DHT22;5977;51.972;7.640;2022-12-20T07:56:15;16.10;80.40
11836;DHT22;5977;51.972;7.640;2022-12-20T07:58:45;16.10;80.60
11836;DHT22;5977;51.972;7.640;2022-12-20T08:01:13;16.10;80.60
11836;DHT22;5977;51.972;7.640;2022-12-20T08:03:43;16.10;80.60
11836;DHT22;5977;51.972;7.640;2022-12-20T08:06:14;16.10;80.60
11836;DHT22;5977;51.972;7.640;2022-12-20T08:08:46;16.20;80.60
11836;DHT22;5977;51.972;7.640;2022-12-20T08:11:16;16.10;80.60
11836;DHT22;5977;51.972;7.640;2022-12-20T08:13:45;16.10;80.70
11836;DHT22;5977;51.972;7.640;2022-12-20T08:16:18;16.20;81.10
11836;DHT22;5977;51.972;7.640;2022-12-20T08:18:46;16.20;81.20
11836;DHT22;5977;51.972;7.640;2022-12-20T08:21:15;16.20;81.30
11836;DHT22;5977;51.972;7.640;2022-12-20T08:23:43;16.20;81.20
11836;DHT22;5977;51.972;7.640;2022-12-20T08:26:11;16.30;81.40
11836;DHT22;5977;51.972;7.640;2022-12-20T08:28:39;16.30;81.50
11836;DHT22;5977;51.972;7.640;2022-12-20T08:31:08;16.20;81.30
11836;DHT22;5977;51.972;7.640;2022-12-20T08:33:39;16.30;81.10
11836;DHT22;5977;51.972;7.640;2022-12-20T08:36:09;16.20;81.00
11836;DHT22;5977;51.972;7.640;2022-12-20T08:38:38;16.30;80.90
11836;DHT22;5977;51.972;7.640;2022-12-20T08:41:07;16.20;80.80
11836;DHT22;5977;51.972;7.640;2022-12-20T08:43:37;16.30;80.90
11836;DHT22;5977;51.972;7.640;2022-12-20T08:46:05;16.20;80.70
11836;DHT22;5977;51.972;7.640;2022-12-20T08:48:34;16.30;80.80
11836;DHT22;5977;51.972;7.640;2022-12-20T08:51:03;16.30;80.70
11836;DHT22;5977;51.972;7.640;2022-12-20T08:53:32;16.40;80.50
11836;DHT22;5977;51.972;7.640;2022-12-20T08:56:07;16.40;80.40
11836;DHT22;5977;51.972;7.640;2022-12-20T08:58:36;16.40;80.00
11836;DHT22;5977;51.972;7.640;2022-12-20T09:01:06;16.50;80.50
11836;DHT22;5977;51.972;7.640;2022-12-20T09:03:35;16.60;80.20
11836;DHT22;5977;51.972;7.640;2022-12-20T09:06:04;16.90;79.70
11836;DHT22;5977;51.972;7.640;2022-12-20T09:08:33;17.20;77.00
11836;DHT22;5977;51.972;7.640;2022-12-20T09:11:08;17.10;76.70
11836;DHT22;5977;51.972;7.640;2022-12-20T09:13:37;16.90;76.70
11836;DHT22;5977;51.972;7.640;2022-12-20T09:16:11;16.80;77.30
11836;DHT22;5977;51.972;7.640;2022-12-20T09:18:40;16.70;77.50
11836;DHT22;5977;51.972;7.640;2022-12-20T09:21:09;16.60;77.90
11836;DHT22;5977;51.972;7.640;2022-12-20T09:23:37;16.60;78.10
11836;DHT22;5977;51.972;7.640;2022-12-20T09:26:09;16.50;78.10
11836;DHT22;5977;51.972;7.640;2022-12-20T09:28:37;16.50;78.10
11836;DHT22;5977;51.972;7.640;2022-12-20T09:31:07;16.50;78.10
11836;DHT22;5977;51.972;7.640;2022-12-20T09:33:35;16.50;78.10
11836;DHT22;5977;51.972;7.640;2022-12-20T09:36:04;16.50;78.20
11836;DHT22;5977;51.972;7.640;2022-12-20T09:38:32;16.50;78.20
11836;DHT22;5977;51.972;7.640;2022-12-20T09:41:02;16.50;78.30
11836;DHT22;5977;51.972;7.640;2022-12-20T09:43:32;16.50;78.30
11836;DHT22;5977;51.972;7.640;2022-12-20T09:46:01;16.50;78.40
11836;DHT22;5977;51.972;7.640;2022-12-20T09:48:32;16.50;78.50
11836;DHT22;5977;51.972;7.640;2022-12-20T09:51:09;16.50;78.50
11836;DHT22;5977;51.972;7.640;2022-12-20T09:53:50;16.40;78.40
11836;DHT22;5977;51.972;7.640;2022-12-20T09:56:26;16.40;78.40
11836;DHT22;5977;51.972;7.640;2022-12-20T09:59:01;16.50;78.50
11836;DHT22;5977;51.972;7.640;2022-12-20T10:01:31;16.40;78.40
11836;DHT22;5977;51.972;7.640;2022-12-20T10:04:09;16.50;78.60
11836;DHT22;5977;51.972;7.640;2022-12-20T10:06:47;16.50;78.50
11836;DHT22;5977;51.972;7.640;2022-12-20T10:09:44;16.40;78.30
11836;DHT22;5977;51.972;7.640;2022-12-20T10:12:22;16.50;78.20
11836;DHT22;5977;51.972;7.640;2022-12-20T10:15:03;16.50;78.20
11836;DHT22;5977;51.972;7.640;2022-12-20T10:17:54;16.50;78.00
11836;DHT22;5977;51.972;7.640;2022-12-20T10:20:36;16.50;78.00
11836;DHT22;5977;51.972;7.640;2022-12-20T10:23:11;16.50;78.00
11836;DHT22;5977;51.972;7.640;2022-12-20T10:25:42;16.60;78.10
11836;DHT22;5977;51.972;7.640;2022-12-20T10:28:12;16.50;78.20
11836;DHT22;5977;51.972;7.640;2022-12-20T10:30:43;16.50;78.00
11836;DHT22;5977;51.972;7.640;2022-12-20T10:33:17;16.50;78.00
11836;DHT22;5977;51.972;7.640;2022-12-20T10:35:46;16.50;77.90
11836;DHT22;5977;51.972;7.640;2022-12-20T10:38:14;16.50;78.00
11836;DHT22;5977;51.972;7.640;2022-12-20T10:40:46;16.50;78.00
11836;DHT22;5977;51.972;7.640;2022-12-20T10:43:41;16.50;77.90
11836;DHT22;5977;51.972;7.640;2022-12-20T10:46:12;16.50;77.70
11836;DHT22;5977;51.972;7.640;2022-12-20T10:48:43;16.50;77.90
11836;DHT22;5977;51.972;7.640;2022-12-20T10:51:14;16.50;78.00
11836;DHT22;5977;51.972;7.640;2022-12-20T10:53:51;16.50;78.00
11836;DHT22;5977;51.972;7.640;2022-12-20T10:56:21;16.50;77.70
11836;DHT22;5977;51.972;7.640;2022-12-20T10:58:55;16.50;78.60
11836;DHT22;5977;51.972;7.640;2022-12-20T11:01:28;16.60;77.80
11836;DHT22;5977;51.972;7.640;2022-12-20T11:03:59;16.60;77.90
11836;DHT22;5977;51.972;7.640;2022-12-20T11:06:40;16.50;77.80
11836;DHT22;5977;51.972;7.640;2022-12-20T11:09:20;16.60;77.50
11836;DHT22;5977;51.972;7.640;2022-12-20T11:11:59;16.60;77.80
11836;DHT22;5977;51.972;7.640;2022-12-20T11:14:28;16.60;77.70
11836;DHT22;5977;51.972;7.640;2022-12-20T11:17:18;16.50;78.30
11836;DHT22;5977;51.972;7.640;2022-12-20T11:19:57;16.50;78.20
11836;DHT22;5977;51.972;7.640;2022-12-20T11:22:40;16.50;78.30
11836;DHT22;5977;51.972;7.640;2022-12-20T11:25:22;16.50;78.30
11836;DHT22;5977;51.972;7.640;2022-12-20T11:28:03;16.50;78.30
11836;DHT22;5977;51.972;7.640;2022-12-20T11:30:41;16.60;78.30
11836;DHT22;5977;51.972;7.640;2022-12-20T11:36:22;16.50;78.20
11836;DHT22;5977;51.972;7.640;2022-12-20T11:38:57;16.50;78.30
11836;DHT22;5977;51.972;7.640;2022-12-20T11:41:33;16.50;78.30
11836;DHT22;5977;51.972;7.640;2022-12-20T11:44:15;16.60;78.30
11836;DHT22;5977;51.972;7.640;2022-12-20T11:47:21;16.50;78.10
11836;DHT22;5977;51.972;7.640;2022-12-20T11:50:11;16.50;78.00
11836;DHT22;5977;51.972;7.640;2022-12-20T11:52:45;16.50;77.90
11836;DHT22;5977;51.972;7.640;2022-12-20T11:55:17;16.50;78.10
11836;DHT22;5977;51.972;7.640;2022-12-20T11:57:55;16.50;78.10
11836;DHT22;5977;51.972;7.640;2022-12-20T12:00:49;16.50;78.00
11836;DHT22;5977;51.972;7.640;2022-12-20T12:03:23;16.40;78.00
11836;DHT22;5977;51.972;7.640;2022-12-20T12:05:57;16.40;78.10
11836;DHT22;5977;51.972;7.640;2022-12-20T12:08:31;16.50;78.20
11836;DHT22;5977;51.972;7.640;2022-12-20T12:11:05;16.40;78.10
11836;DHT22;5977;51.972;7.640;2022-12-20T12:13:56;16.40;78.10
11836;DHT22;5977;51.972;7.640;2022-12-20T12:16:27;16.40;78.30
11836;DHT22;5977;51.972;7.640;2022-12-20T12:18:57;16.40;78.30
11836;DHT22;5977;51.972;7.640;2022-12-20T12:21:31;16.40;78.40
11836;DHT22;5977;51.972;7.640;2022-12-20T12:24:06;16.40;78.20
11836;DHT22;5977;51.972;7.640;2022-12-20T12:26:38;16.40;78.40
11836;DHT22;5977;51.972;7.640;2022-12-20T12:29:11;16.40;78.80
11836;DHT22;5977;51.972;7.640;2022-12-20T12:31:43;16.40;78.80
11836;DHT22;5977;51.972;7.640;2022-12-20T12:34:26;16.40;79.10
11836;DHT22;5977;51.972;7.640;2022-12-20T12:37:29;16.50;79.20
11836;DHT22;5977;51.972;7.640;2022-12-20T12:40:15;16.60;79.20
11836;DHT22;5977;51.972;7.640;2022-12-20T12:43:21;16.60;79.30
11836;DHT22;5977;51.972;7.640;2022-12-20T12:45:57;16.70;79.30
11836;DHT22;5977;51.972;7.640;2022-12-20T12:48:31;16.60;79.50
11836;DHT22;5977;51.972;7.640;2022-12-20T12:51:03;16.70;79.50
11836;DHT22;5977;51.972;7.640;2022-12-20T12:53:35;16.60;79.50
11836;DHT22;5977;51.972;7.640;2022-12-20T12:56:29;16.60;79.50
11836;DHT22;5977;51.972;7.640;2022-12-20T13:02:33;16.70;79.30
11836;DHT22;5977;51.972;7.640;2022-12-20T13:05:31;16.70;79.40
11836;DHT22;5977;51.972;7.640;2022-12-20T13:08:00;16.60;79.40
11836;DHT22;5977;51.972;7.640;2022-12-20T13:10:56;16.60;79.80
11836;DHT22;5977;51.972;7.640;2022-12-20T13:13:26;16.60;79.50
11836;DHT22;5977;51.972;7.640;2022-12-20T13:16:10;16.60;79.80
11836;DHT22;5977;51.972;7.640;2022-12-20T13:19:10;16.70;79.60
11836;DHT22;5977;51.972;7.640;2022-12-20T13:21:40;16.60;79.40
11836;DHT22;5977;51.972;7.640;2022-12-20T13:24:49;16.70;79.80
11836;DHT22;5977;51.972;7.640;2022-12-20T13:27:26;16.70;80.10
11836;DHT22;5977;51.972;7.640;2022-12-20T13:30:01;16.70;79.60
11836;DHT22;5977;51.972;7.640;2022-12-20T13:33:17;16.70;79.60
11836;DHT22;5977;51.972;7.640;2022-12-20T13:36:04;16.70;79.40
11836;DHT22;5977;51.972;7.640;2022-12-20T13:38:56;16.80;79.50
11836;DHT22;5977;51.972;7.640;2022-12-20T13:41:39;16.70;79.60
11836;DHT22;5977;51.972;7.640;2022-12-20T13:44:32;16.70;79.50
11836;DHT22;5977;51.972;7.640;2022-12-20T13:47:06;16.70;79.50
11836;DHT22;5977;51.972;7.640;2022-12-20T13:49:40;16.70;79.70
11836;DHT22;5977;51.972;7.640;2022-12-20T13:52:15;16.70;79.80
11836;DHT22;5977;51.972;7.640;2022-12-20T13:54:47;16.70;79.80
11836;DHT22;5977;51.972;7.640;2022-12-20T13:57:18;16.70;79.90
11836;DHT22;5977;51.972;7.640;2022-12-20T13:59:50;16.70;79.90
11836;DHT22;5977;51.972;7.640;2022-12-20T14:02:21;16.70;79.80
11836;DHT22;5977;51.972;7.640;2022-12-20T14:04:56;16.70;79.90
11836;DHT22;5977;51.972;7.640;2022-12-20T14:07:26;16.60;79.80
11836;DHT22;5977;51.972;7.640;2022-12-20T14:09:58;16.60;80.00
11836;DHT22;5977;51.972;7.640;2022-12-20T14:12:27;16.60;79.90
11836;DHT22;5977;51.972;7.640;2022-12-20T14:15:20;16.70;80.10
11836;DHT22;5977;51.972;7.640;2022-12-20T14:17:48;16.60;79.70
11836;DHT22;5977;51.972;7.640;2022-12-20T14:20:18;16.60;80.80
11836;DHT22;5977;51.972;7.640;2022-12-20T14:22:52;16.60;80.10
11836;DHT22;5977;51.972;7.640;2022-12-20T14:25:37;16.60;80.00
11836;DHT22;5977;51.972;7.640;2022-12-20T14:28:17;16.60;80.00
11836;DHT22;5977;51.972;7.640;2022-12-20T14:30:53;16.50;79.90
11836;DHT22;5977;51.972;7.640;2022-12-20T14:33:29;16.50;80.20
11836;DHT22;5977;51.972;7.640;2022-12-20T14:36:07;16.50;80.10
11836;DHT22;5977;51.972;7.640;2022-12-20T14:38:36;16.60;80.00
11836;DHT22;5977;51.972;7.640;2022-12-20T14:41:31;16.50;80.20
11836;DHT22;5977;51.972;7.640;2022-12-20T14:44:02;16.50;79.90
11836;DHT22;5977;51.972;7.640;2022-12-20T14:46:30;16.50;80.10
11836;DHT22;5977;51.972;7.640;2022-12-20T14:49:15;16.50;80.30
11836;DHT22;5977;51.972;7.640;2022-12-20T14:51:44;16.60;80.10
11836;DHT22;5977;51.972;7.640;2022-12-20T14:54:16;16.50;80.40
11836;DHT22;5977;51.972;7.640;2022-12-20T14:57:10;16.50;80.30
11836;DHT22;5977;51.972;7.640;2022-12-20T14:59:38;16.50;80.30
11836;DHT22;5977;51.972;7.640;2022-12-20T15:02:22;16.60;80.50
11836;DHT22;5977;51.972;7.640;2022-12-20T15:04:55;16.50;80.20
11836;DHT22;5977;51.972;7.640;2022-12-20T15:07:28;16.60;80.60
11836;DHT22;5977;51.972;7.640;2022-12-20T15:09:56;16.50;80.30
11836;DHT22;5977;51.972;7.640;2022-12-20T15:12:26;16.50;80.60
11836;DHT22;5977;51.972;7.640;2022-12-20T15:14:54;16.60;80.50
11836;DHT22;5977;51.972;7.640;2022-12-20T15:17:26;16.50;80.60
11836;DHT22;5977;51.972;7.640;2022-12-20T15:19:54;16.50;80.60
11836;DHT22;5977;51.972;7.640;2022-12-20T15:22:22;16.50;80.60
11836;DHT22;5977;51.972;7.640;2022-12-20T15:24:50;16.50;80.60
11836;DHT22;5977;51.972;7.640;2022-12-20T15:27:18;16.50;80.60
11836;DHT22;5977;51.972;7.640;2022-12-20T15:29:48;16.50;80.60
11836;DHT22;5977;51.972;7.640;2022-12-20T15:32:22;16.40;80.30
11836;DHT22;5977;51.972;7.640;2022-12-20T15:34:51;16.40;80.20
11836;DHT22;5977;51.972;7.640;2022-12-20T15:37:19;16.40;80.40
11836;DHT22;5977;51.972;7.640;2022-12-20T15:39:46;16.50;80.40
11836;DHT22;5977;51.972;7.640;2022-12-20T15:42:15;16.40;80.40
11836;DHT22;5977;51.972;7.640;2022-12-20T15:44:44;16.40;80.30
11836;DHT22;5977;51.972;7.640;2022-12-20T15:47:15;16.40;80.30
11836;DHT22;5977;51.972;7.640;2022-12-20T15:49:43;16.40;80.20
11836;DHT22;5977;51.972;7.640;2022-12-20T15:52:18;16.40;80.20
11836;DHT22;5977;51.972;7.640;2022-12-20T15:54:47;16.40;80.00
11836;DHT22;5977;51.972;7.640;2022-12-20T15:57:15;16.40;80.20
11836;DHT22;5977;51.972;7.640;2022-12-20T15:59:43;16.40;80.20
11836;DHT22;5977;51.972;7.640;2022-12-20T16:02:38;16.50;80.20
11836;DHT22;5977;51.972;7.640;2022-12-20T16:05:10;16.50;80.20
11836;DHT22;5977;51.972;7.640;2022-12-20T16:07:39;16.40;80.00
11836;DHT22;5977;51.972;7.640;2022-12-20T16:10:11;16.40;80.30
11836;DHT22;5977;51.972;7.640;2022-12-20T16:12:40;16.40;80.20
11836;DHT22;5977;51.972;7.640;2022-12-20T16:15:16;16.40;80.20
11836;DHT22;5977;51.972;7.640;2022-12-20T16:17:46;16.40;80.10
11836;DHT22;5977;51.972;7.640;2022-12-20T16:20:14;16.40;80.20
11836;DHT22;5977;51.972;7.640;2022-12-20T16:22:42;16.50;80.20
11836;DHT22;5977;51.972;7.640;2022-12-20T16:25:22;16.40;80.20
11836;DHT22;5977;51.972;7.640;2022-12-20T16:27:51;16.50;80.00
11836;DHT22;5977;51.972;7.640;2022-12-20T16:30:19;16.40;80.20